TimeMDT,TemperatureF,Dew PointF,Humidity,Sea Level PressureIn,VisibilityMPH,Wind Direction,Wind SpeedMPH,Gust SpeedMPH,PrecipitationIn,Events,Conditions,WindDirDegrees,DateUTC
12:53 AM,35.1,21.9,59,30.28,10.0,South,11.5,-,N/A,,Clear,190,2013-03-10 07:53:00
1:53 AM,35.1,21.9,59,30.29,10.0,SSW,12.7,-,N/A,,Clear,200,2013-03-10 08:53:00
3:53 AM,35.1,21.0,57,30.29,10.0,SSW,12.7,-,N/A,,Clear,210,2013-03-10 09:53:00
4:53 AM,35.1,21.0,57,30.30,10.0,SSW,13.8,-,N/A,,Clear,200,2013-03-10 10:53:00
6:53 AM,35.1,19.0,52,30.33,10.0,SSW,12.7,-,N/A,,Clear,210,2013-03-10 12:53:00
7:53 AM,34.0,19.0,54,30.34,10.0,South,15.0,-,N/A,,Clear,190,2013-03-10 13:53:00
8:53 AM,36.0,18.0,48,30.36,10.0,SSW,11.5,-,N/A,,Clear,200,2013-03-10 14:53:00
9:53 AM,42.1,16.0,35,30.36,10.0,SW,12.7,-,N/A,,Clear,230,2013-03-10 15:53:00
10:53 AM,44.1,16.0,32,30.36,10.0,WSW,15.0,24.2,N/A,,Clear,250,2013-03-10 16:53:00
11:53 AM,46.9,16.0,29,30.36,10.0,West,19.6,-,N/A,,Clear,260,2013-03-10 17:53:00
12:53 PM,48.9,17.1,28,30.34,10.0,West,19.6,25.3,N/A,,Clear,260,2013-03-10 18:53:00
1:53 PM,51.1,16.0,25,30.31,10.0,WSW,17.3,25.3,N/A,,Clear,250,2013-03-10 19:53:00
2:53 PM,53.1,12.9,20,30.27,10.0,West,19.6,27.6,N/A,,Clear,270,2013-03-10 20:53:00
3:53 PM,53.1,10.9,19,30.26,10.0,WSW,19.6,27.6,N/A,,Clear,250,2013-03-10 21:53:00
4:53 PM,53.1,9.0,17,30.25,10.0,West,17.3,-,N/A,,Clear,260,2013-03-10 22:53:00
5:53 PM,54.0,8.1,16,30.22,10.0,West,15.0,24.2,N/A,,Clear,260,2013-03-10 23:53:00
6:53 PM,50.0,10.9,21,30.23,10.0,West,12.7,-,N/A,,Clear,270,2013-03-11 00:53:00
7:53 PM,46.0,14.0,28,30.26,10.0,SW,9.2,-,N/A,,Clear,220,2013-03-11 01:53:00
8:53 PM,41.0,17.1,38,30.27,10.0,SW,12.7,-,N/A,,Clear,220,2013-03-11 02:53:00
9:53 PM,41.0,21.9,47,30.25,10.0,SSW,13.8,-,N/A,,Mostly Cloudy,200,2013-03-11 03:53:00
10:53 PM,39.9,23.0,51,30.24,10.0,SSW,15.0,-,N/A,,Scattered Clouds,200,2013-03-11 04:53:00
11:53 PM,41.0,21.9,47,30.22,10.0,South,15.0,-,N/A,,Partly Cloudy,190,2013-03-11 05:53:00
12:53 AM,43.0,21.9,43,30.22,10.0,SSW,12.7,-,N/A,,Overcast,210,2013-03-11 06:53:00